Time;durP1;ratioP1;P1;durP2;ratioP2;P2;SDS_P1;SDS_P2;PMS_P1;PMS_P2;Temp;Humidity;BMP_temperature;BMP_pressure;BME280_temperature;BME280_humidity;BME280_pressure;Samples;Min_cycle;Max_cycle;Signal;HPM_P1;HPM_P2
2023/11/04 00:01:40;;;;;;;2.03;0.68;;;8.30;99.90;;;;;;5038994;28;20021;-88
2023/11/04 00:04:06;;;;;;;1.15;0.60;;;8.30;99.90;;;;;;5056313;28;20351;-87
2023/11/04 00:06:32;;;;;;;2.40;0.73;;;8.30;99.90;;;;;;5037503;28;20024;-87
2023/11/04 00:08:58;;;;;;;1.65;0.77;;;8.40;99.90;;;;;;5056292;28;20079;-88
2023/11/04 00:11:24;;;;;;;1.15;0.70;;;8.40;99.90;;;;;;5038038;28;20484;-87
2023/11/04 00:13:49;;;;;;;2.92;0.80;;;8.40;99.90;;;;;;5055875;28;20017;-88
2023/11/04 00:16:15;;;;;;;2.08;0.80;;;8.40;99.90;;;;;;5055655;28;20028;-84
2023/11/04 00:18:40;;;;;;;1.00;0.60;;;8.40;99.90;;;;;;5038331;28;20120;-87
2023/11/04 00:21:09;;;;;;;1.80;0.73;;;8.30;99.90;;;;;;5038632;28;20024;-87
2023/11/04 00:23:34;;;;;;;1.38;0.50;;;8.40;99.90;;;;;;5037990;28;20072;-87
2023/11/04 00:26:00;;;;;;;1.75;0.60;;;8.40;99.90;;;;;;5038509;28;20460;-87
2023/11/04 00:28:25;;;;;;;0.93;0.55;;;8.40;99.90;;;;;;5055235;28;20078;-87
2023/11/04 00:30:51;;;;;;;2.22;0.80;;;8.40;99.90;;;;;;5056064;28;20096;-86
2023/11/04 00:33:17;;;;;;;1.10;0.57;;;8.40;99.90;;;;;;5038459;28;20017;-84
2023/11/04 00:35:43;;;;;;;1.63;0.70;;;8.40;99.90;;;;;;5038676;28;20465;-87
2023/11/04 00:38:08;;;;;;;1.30;0.63;;;8.40;99.90;;;;;;5056592;28;20072;-87
2023/11/04 00:40:35;;;;;;;0.73;0.40;;;8.40;99.90;;;;;;5056026;28;20036;-89
2023/11/04 00:43:01;;;;;;;2.00;0.90;;;8.40;99.90;;;;;;5038219;28;20049;-89
2023/11/04 00:45:28;;;;;;;3.95;0.60;;;8.40;99.90;;;;;;5037984;28;20044;-88
2023/11/04 00:47:53;;;;;;;1.23;0.70;;;8.40;99.90;;;;;;5037782;28;20028;-89
2023/11/04 00:50:19;;;;;;;0.93;0.73;;;8.40;99.90;;;;;;5055246;28;20017;-86
2023/11/04 00:52:45;;;;;;;1.00;0.68;;;8.40;99.90;;;;;;5056256;28;20092;-88
2023/11/04 00:55:10;;;;;;;1.00;0.47;;;8.50;99.90;;;;;;5038482;28;20108;-88
2023/11/04 00:57:38;;;;;;;1.63;0.60;;;8.50;99.90;;;;;;5037898;28;20041;-88
2023/11/04 01:00:05;;;;;;;1.70;0.77;;;8.40;99.90;;;;;;5038376;28;20021;-87
2023/11/04 01:02:32;;;;;;;2.78;0.70;;;8.50;99.90;;;;;;5037787;28;20078;-88
2023/11/04 01:04:57;;;;;;;6.63;0.60;;;8.50;99.90;;;;;;5055785;28;20021;-88
2023/11/04 01:07:23;;;;;;;2.83;0.68;;;8.40;99.90;;;;;;5037553;28;20504;-87
2023/11/04 01:09:49;;;;;;;1.42;0.47;;;8.50;99.90;;;;;;5055470;28;20438;-88
2023/11/04 01:12:15;;;;;;;1.60;0.50;;;8.50;99.90;;;;;;5055337;28;20070;-88
2023/11/04 01:14:40;;;;;;;1.05;0.50;;;8.50;99.90;;;;;;5037101;28;20025;-88
2023/11/04 01:17:06;;;;;;;1.88;0.40;;;8.60;99.90;;;;;;5054052;28;20033;-88
2023/11/04 01:19:32;;;;;;;1.63;0.70;;;8.60;99.90;;;;;;5037170;28;20465;-88
2023/11/04 01:21:57;;;;;;;1.10;0.40;;;8.60;99.90;;;;;;5037659;28;20021;-88
2023/11/04 01:24:23;;;;;;;0.63;0.32;;;8.60;99.90;;;;;;5053706;28;20116;-87
2023/11/04 01:26:52;;;;;;;1.23;0.50;;;8.60;99.90;;;;;;5054977;28;20017;-88
2023/11/04 01:29:18;;;;;;;49.67;15.05;;;8.60;99.90;;;;;;5055340;28;20116;-85
2023/11/04 01:31:44;;;;;;;53.25;19.83;;;8.60;99.90;;;;;;5054878;28;20025;-88
2023/11/04 01:34:10;;;;;;;3.97;2.40;;;8.70;99.90;;;;;;5054987;28;20021;-88
2023/11/04 01:36:36;;;;;;;2.70;1.35;;;8.70;99.90;;;;;;5036773;28;20071;-88
2023/11/04 01:39:02;;;;;;;1.90;1.20;;;8.70;99.90;;;;;;5037253;28;20040;-88
2023/11/04 01:41:28;;;;;;;3.22;0.60;;;8.80;99.90;;;;;;5035858;28;20114;-89
2023/11/04 01:43:53;;;;;;;0.85;0.30;;;8.80;99.90;;;;;;5054718;28;20104;-89
2023/11/04 01:46:22;;;;;;;3.38;0.57;;;8.80;99.90;;;;;;5036707;28;20021;-85
2023/11/04 01:48:48;;;;;;;0.70;0.45;;;8.80;99.90;;;;;;5036887;28;20025;-89
2023/11/04 01:51:15;;;;;;;0.82;0.43;;;8.80;99.90;;;;;;5037200;28;20052;-89
2023/11/04 01:53:46;;;;;;;0.98;0.50;;;8.80;99.90;;;;;;5054590;28;20028;-89
2023/11/04 01:56:15;;;;;;;1.60;0.30;;;8.80;99.90;;;;;;5055114;28;20020;-89
2023/11/04 01:58:44;;;;;;;1.95;0.40;;;8.80;99.90;;;;;;5036562;28;20244;-89
2023/11/04 02:01:12;;;;;;;1.42;0.50;;;8.70;99.90;;;;;;5036781;28;20017;-90
2023/11/04 02:03:38;;;;;;;0.60;0.30;;;8.70;99.90;;;;;;5036343;28;20351;-89
2023/11/04 02:06:04;;;;;;;0.60;0.30;;;8.70;99.90;;;;;;5036917;28;20035;-89
2023/11/04 02:08:30;;;;;;;1.40;0.20;;;8.60;99.90;;;;;;5036199;28;20029;-89
2023/11/04 02:10:56;;;;;;;0.55;0.40;;;8.60;99.90;;;;;;5036525;28;20032;-90
2023/11/04 02:13:21;;;;;;;0.80;0.50;;;8.60;99.90;;;;;;5052884;28;20092;-85
2023/11/04 02:15:47;;;;;;;2.35;0.40;;;8.60;99.90;;;;;;5036563;28;20021;-90
2023/11/04 02:18:12;;;;;;;0.30;0.30;;;8.60;99.90;;;;;;5036748;28;20071;-89
2023/11/04 02:20:41;;;;;;;1.75;0.40;;;8.60;99.90;;;;;;5036360;28;20052;-90
2023/11/04 02:23:07;;;;;;;0.95;0.40;;;8.60;99.90;;;;;;5036661;28;20028;-89
2023/11/04 02:25:34;;;;;;;0.52;0.30;;;8.60;99.90;;;;;;5053593;28;20021;-89
2023/11/04 02:28:00;;;;;;;0.73;0.40;;;8.60;99.90;;;;;;5053829;28;20029;-89
2023/11/04 02:30:25;;;;;;;0.52;0.32;;;8.50;99.90;;;;;;5053527;28;20029;-88
2023/11/04 02:32:51;;;;;;;1.42;0.30;;;8.50;99.90;;;;;;5053973;28;20047;-90
2023/11/04 02:35:19;;;;;;;3.13;0.32;;;8.60;99.90;;;;;;5036552;28;20447;-89
2023/11/04 02:37:45;;;;;;;0.68;0.30;;;8.50;99.90;;;;;;5035591;28;20033;-89
2023/11/04 02:40:12;;;;;;;1.27;0.30;;;8.60;99.90;;;;;;5036522;28;20044;-90
2023/11/04 02:42:39;;;;;;;1.02;0.50;;;8.50;99.90;;;;;;5035568;28;20052;-92
2023/11/04 02:45:05;;;;;;;0.68;0.25;;;8.50;99.90;;;;;;5053992;28;20051;-91
2023/11/04 02:47:31;;;;;;;0.38;0.30;;;8.60;99.90;;;;;;5053421;28;20029;-91
2023/11/04 02:49:57;;;;;;;0.75;0.30;;;8.60;99.90;;;;;;5054002;28;20104;-92
2023/11/04 02:52:23;;;;;;;0.82;0.40;;;8.60;99.90;;;;;;5053899;28;20087;-87
2023/11/04 02:54:49;;;;;;;0.20;0.20;;;8.60;99.90;;;;;;5035945;28;20027;-91
2023/11/04 02:57:15;;;;;;;0.40;0.30;;;8.60;99.90;;;;;;5053830;28;20035;-90
2023/11/04 02:59:40;;;;;;;1.00;0.35;;;8.60;99.90;;;;;;5053138;28;20036;-90
2023/11/04 03:02:06;;;;;;;1.05;0.30;;;8.60;99.90;;;;;;5036352;28;20021;-90
2023/11/04 03:04:32;;;;;;;0.98;0.40;;;8.60;99.90;;;;;;5053437;28;20017;-92
2023/11/04 03:06:58;;;;;;;0.40;0.38;;;8.70;99.90;;;;;;5053790;28;20063;-93
2023/11/04 03:09:23;;;;;;;0.68;0.50;;;8.70;99.90;;;;;;5053663;28;20025;-92
2023/11/04 03:11:52;;;;;;;1.58;0.40;;;8.70;99.90;;;;;;5035468;28;20017;-92
2023/11/04 03:14:17;;;;;;;0.45;0.30;;;8.70;99.90;;;;;;5052686;28;20055;-92
2023/11/04 03:16:43;;;;;;;0.50;0.28;;;8.70;99.90;;;;;;5051854;28;20025;-92
2023/11/04 03:19:09;;;;;;;0.60;0.50;;;8.70;99.90;;;;;;5052434;28;20025;-93
2023/11/04 03:21:34;;;;;;;1.17;0.22;;;8.70;99.90;;;;;;5052062;28;20021;-92
2023/11/04 03:24:00;;;;;;;1.58;0.40;;;8.70;99.90;;;;;;5052681;28;20021;-89
2023/11/04 03:26:26;;;;;;;0.75;0.40;;;8.80;99.90;;;;;;5053182;28;20017;-86
2023/11/04 03:28:51;;;;;;;1.13;0.40;;;8.70;99.90;;;;;;5052553;28;20119;-89
2023/11/04 03:31:17;;;;;;;0.65;0.30;;;8.70;99.90;;;;;;5052540;28;20082;-91
2023/11/04 03:33:42;;;;;;;0.50;0.30;;;8.70;99.90;;;;;;5051701;28;20021;-89
2023/11/04 03:36:11;;;;;;;0.30;0.30;;;8.70;99.90;;;;;;5052475;28;20025;-90
2023/11/04 03:38:39;;;;;;;2.17;0.30;;;8.60;99.90;;;;;;5052777;28;20025;-90
2023/11/04 03:41:05;;;;;;;1.15;0.22;;;8.60;99.90;;;;;;5054421;28;20052;-92
2023/11/04 03:43:30;;;;;;;1.85;0.30;;;8.60;99.90;;;;;;5056134;28;20079;-91
2023/11/04 03:45:56;;;;;;;2.55;0.40;;;8.60;99.90;;;;;;5056261;28;20029;-92
2023/11/04 03:48:23;;;;;;;1.90;0.50;;;8.60;99.90;;;;;;5056961;28;20052;-92
2023/11/04 03:50:49;;;;;;;0.40;0.40;;;8.60;99.90;;;;;;5056839;28;20025;-92
2023/11/04 03:53:15;;;;;;;0.35;0.30;;;8.60;99.90;;;;;;5056119;28;20512;-91
2023/11/04 03:55:40;;;;;;;1.05;0.32;;;8.60;99.90;;;;;;5056314;28;20021;-92
2023/11/04 03:58:06;;;;;;;0.30;0.30;;;8.50;99.90;;;;;;5055770;28;20033;-92
2023/11/04 04:00:33;;;;;;;0.30;0.30;;;8.50;99.90;;;;;;5056033;28;20021;-91
2023/11/04 04:02:59;;;;;;;1.27;0.43;;;8.50;99.90;;;;;;5055372;28;20060;-92
2023/11/04 04:05:24;;;;;;;1.65;0.30;;;8.50;99.90;;;;;;5055518;28;20025;-92
2023/11/04 04:07:50;;;;;;;0.40;0.30;;;8.50;99.90;;;;;;5055064;28;20032;-93
2023/11/04 04:10:16;;;;;;;0.25;0.20;;;8.50;99.90;;;;;;5055494;28;20048;-91
2023/11/04 04:12:42;;;;;;;1.48;0.30;;;8.50;99.90;;;;;;5054718;28;20485;-93
2023/11/04 04:15:08;;;;;;;0.57;0.30;;;8.50;99.90;;;;;;5056712;28;20033;-92
2023/11/04 04:17:33;;;;;;;1.63;0.30;;;8.50;99.90;;;;;;5055387;28;20095;-92
2023/11/04 04:19:59;;;;;;;0.77;0.30;;;8.50;99.90;;;;;;5055352;28;20450;-91
2023/11/04 04:22:25;;;;;;;0.40;0.20;;;8.50;99.90;;;;;;5038773;28;20021;-93
2023/11/04 04:24:50;;;;;;;0.75;0.20;;;8.50;99.90;;;;;;5055499;28;20184;-91
2023/11/04 04:27:16;;;;;;;2.17;0.38;;;8.50;99.90;;;;;;5055243;28;20079;-91
2023/11/04 04:29:41;;;;;;;0.47;0.25;;;8.40;99.90;;;;;;5054659;28;20043;-91
2023/11/04 04:32:07;;;;;;;1.08;0.28;;;8.50;99.90;;;;;;5056204;28;20422;-91
2023/11/04 04:34:33;;;;;;;0.60;0.35;;;8.40;99.90;;;;;;5054585;28;20028;-89
2023/11/04 04:36:58;;;;;;;0.55;0.35;;;8.40;99.90;;;;;;5056083;28;20031;-93
2023/11/04 04:39:24;;;;;;;2.28;1.05;;;8.40;99.90;;;;;;5056091;28;20025;-89
2023/11/04 04:41:50;;;;;;;0.93;0.40;;;8.40;99.90;;;;;;5053972;28;20068;-89
2023/11/04 04:44:16;;;;;;;0.60;0.40;;;8.50;99.90;;;;;;5055664;28;20028;-89
2023/11/04 04:46:42;;;;;;;0.55;0.30;;;8.50;99.90;;;;;;5054010;28;20070;-88
2023/11/04 04:49:08;;;;;;;0.60;0.30;;;8.60;99.90;;;;;;5054766;28;20021;-91
2023/11/04 04:51:34;;;;;;;0.50;0.30;;;8.60;99.90;;;;;;5054006;28;20028;-90
2023/11/04 04:54:00;;;;;;;0.35;0.30;;;8.60;99.90;;;;;;5054767;28;20025;-92
2023/11/04 04:56:29;;;;;;;0.43;0.30;;;8.60;99.90;;;;;;5055774;28;20024;-92
2023/11/04 04:58:55;;;;;;;0.50;0.30;;;8.70;99.90;;;;;;5054367;28;20111;-91
2023/11/04 05:01:24;;;;;;;0.50;0.20;;;8.70;99.90;;;;;;5054879;28;20179;-92
2023/11/04 05:03:49;;;;;;;0.30;0.25;;;8.70;99.90;;;;;;5054253;28;20473;-92
2023/11/04 05:06:15;;;;;;;0.55;0.28;;;8.70;99.90;;;;;;5054600;28;20017;-92
2023/11/04 05:08:41;;;;;;;0.60;0.30;;;8.70;99.90;;;;;;5054020;28;20025;-92
2023/11/04 05:11:08;;;;;;;0.25;0.20;;;8.70;99.90;;;;;;5054396;28;20051;-92
2023/11/04 05:13:34;;;;;;;0.65;0.30;;;8.80;99.90;;;;;;5054130;28;20120;-89
2023/11/04 05:16:00;;;;;;;1.63;0.20;;;8.80;99.90;;;;;;5054235;28;20055;-92
2023/11/04 05:18:26;;;;;;;1.73;0.30;;;8.80;99.90;;;;;;5054295;28;20092;-92
2023/11/04 05:20:52;;;;;;;1.40;0.20;;;8.80;99.90;;;;;;5053913;28;20093;-92
2023/11/04 05:23:18;;;;;;;0.38;0.30;;;8.80;99.90;;;;;;5054147;28;20040;-91
2023/11/04 05:25:44;;;;;;;0.38;0.20;;;8.80;99.90;;;;;;5054302;28;20455;-91
2023/11/04 05:28:10;;;;;;;0.30;0.30;;;8.90;99.90;;;;;;5054359;28;20155;-92
2023/11/04 05:30:35;;;;;;;0.70;0.20;;;8.90;99.90;;;;;;5054263;28;20393;-85
2023/11/04 05:33:01;;;;;;;0.25;0.25;;;8.90;99.90;;;;;;5054166;28;20032;-93
2023/11/04 05:35:28;;;;;;;0.50;0.20;;;8.90;99.90;;;;;;5037569;28;20123;-91
2023/11/04 05:37:53;;;;;;;2.80;0.40;;;8.90;99.90;;;;;;5036816;28;20039;-90
2023/11/04 05:40:19;;;;;;;1.38;0.40;;;8.90;99.90;;;;;;5055126;28;20100;-90
2023/11/04 05:42:45;;;;;;;1.23;0.40;;;8.80;99.90;;;;;;5054558;28;20048;-90
2023/11/04 05:45:14;;;;;;;0.20;0.20;;;8.80;99.90;;;;;;5054968;28;20021;-90
2023/11/04 05:47:49;;;;;;;0.75;0.47;;;8.80;99.90;;;;;;5037064;28;20031;-90
2023/11/04 05:50:15;;;;;;;0.60;0.50;;;8.90;99.90;;;;;;5055027;28;20021;-90
2023/11/04 05:52:43;;;;;;;1.67;0.30;;;8.80;99.90;;;;;;5054170;28;20051;-90
2023/11/04 05:55:09;;;;;;;0.60;0.40;;;8.80;99.90;;;;;;5036995;28;20119;-91
2023/11/04 05:57:35;;;;;;;1.17;0.82;;;8.80;99.90;;;;;;5054271;28;20108;-86
2023/11/04 06:00:06;;;;;;;1.60;0.40;;;8.80;99.90;;;;;;5053842;28;20060;-89
2023/11/04 06:02:32;;;;;;;0.40;0.20;;;8.80;99.90;;;;;;5036953;28;20107;-90
2023/11/04 06:04:58;;;;;;;0.30;0.30;;;8.80;99.90;;;;;;5036351;28;20037;-89
2023/11/04 06:07:24;;;;;;;4.53;0.60;;;8.80;99.90;;;;;;5053652;28;20028;-89
2023/11/04 06:09:49;;;;;;;1.45;0.40;;;8.80;99.90;;;;;;5036547;28;20024;-90
2023/11/04 06:12:15;;;;;;;0.60;0.30;;;8.80;99.90;;;;;;5036670;28;20112;-90
2023/11/04 06:14:40;;;;;;;1.95;0.50;;;8.70;99.90;;;;;;5053916;28;20033;-90
2023/11/04 06:17:06;;;;;;;0.93;0.30;;;8.60;99.90;;;;;;5054355;28;20446;-91
2023/11/04 06:19:32;;;;;;;0.35;0.30;;;8.50;99.90;;;;;;5036869;28;20032;-90
2023/11/04 06:21:57;;;;;;;2.05;0.50;;;8.60;99.90;;;;;;5036157;28;20268;-90
2023/11/04 06:24:23;;;;;;;0.30;0.30;;;8.60;99.90;;;;;;5036485;28;20041;-89
2023/11/04 06:26:49;;;;;;;1.50;0.40;;;8.50;99.90;;;;;;5036095;28;20025;-89
2023/11/04 06:29:16;;;;;;;1.58;0.30;;;8.50;99.90;;;;;;5036585;28;20021;-89
2023/11/04 06:31:42;;;;;;;2.28;0.30;;;8.40;99.90;;;;;;5035994;28;20051;-89
2023/11/04 06:34:07;;;;;;;0.40;0.38;;;8.40;99.90;;;;;;5054483;28;20021;-89
2023/11/04 06:36:33;;;;;;;1.05;0.57;;;8.40;99.90;;;;;;5053453;28;20469;-89
2023/11/04 06:38:59;;;;;;;1.48;0.40;;;8.30;99.90;;;;;;5053561;28;20844;-89
2023/11/04 06:41:24;;;;;;;0.82;0.45;;;8.30;99.90;;;;;;5053800;28;20025;-89
2023/11/04 06:43:51;;;;;;;0.30;0.30;;;8.30;99.90;;;;;;5053616;28;20104;-89
2023/11/04 06:46:17;;;;;;;3.53;0.43;;;8.30;99.90;;;;;;5054042;28;20017;-89
2023/11/04 06:48:43;;;;;;;2.05;0.50;;;8.30;99.90;;;;;;5036030;28;20025;-87
2023/11/04 06:51:10;;;;;;;2.05;0.30;;;8.30;99.90;;;;;;5036355;28;20032;-88
2023/11/04 06:53:35;;;;;;;1.40;0.60;;;8.30;99.90;;;;;;5036335;28;20032;-88
2023/11/04 06:56:02;;;;;;;0.43;0.40;;;8.30;99.90;;;;;;5036037;28;20116;-87
2023/11/04 06:58:28;;;;;;;0.40;0.30;;;8.30;99.90;;;;;;5054018;28;20025;-87
2023/11/04 07:00:54;;;;;;;3.72;0.50;;;8.20;99.90;;;;;;5053580;28;20025;-87
2023/11/04 07:03:20;;;;;;;2.08;0.50;;;8.20;99.90;;;;;;5036356;28;20021;-88
2023/11/04 07:05:46;;;;;;;0.70;0.25;;;8.10;99.90;;;;;;5035757;28;20458;-89
2023/11/04 07:08:14;;;;;;;1.30;0.40;;;8.20;99.90;;;;;;5036133;28;20124;-88
2023/11/04 07:10:40;;;;;;;0.45;0.32;;;8.10;99.90;;;;;;5035951;28;20028;-83
2023/11/04 07:13:11;;;;;;;3.50;0.40;;;8.10;99.90;;;;;;5036074;28;20029;-90
2023/11/04 07:15:44;;;;;;;1.63;0.60;;;8.10;99.90;;;;;;5057068;28;20048;-90
2023/11/04 07:18:14;;;;;;;1.52;0.77;;;8.10;99.90;;;;;;5039976;28;20033;-90
2023/11/04 07:20:44;;;;;;;1.98;0.50;;;8.00;99.90;;;;;;5040001;28;20090;-84
2023/11/04 07:23:12;;;;;;;3.05;0.73;;;8.10;99.90;;;;;;5040342;28;20408;-87
2023/11/04 07:25:38;;;;;;;0.80;0.50;;;8.10;99.90;;;;;;5056418;28;20029;-83
2023/11/04 07:28:04;;;;;;;0.95;0.68;;;8.10;99.90;;;;;;5057240;28;20468;-88
2023/11/04 07:30:30;;;;;;;0.50;0.38;;;8.10;99.90;;;;;;5057546;28;20021;-88
2023/11/04 07:32:55;;;;;;;1.50;0.47;;;8.10;99.90;;;;;;5039251;28;20112;-88
2023/11/04 07:35:21;;;;;;;1.60;0.60;;;8.20;99.90;;;;;;5056123;28;20457;-88
2023/11/04 07:37:47;;;;;;;1.48;0.52;;;8.30;99.90;;;;;;5055877;28;20029;-88
2023/11/04 07:40:14;;;;;;;0.50;0.38;;;8.30;99.90;;;;;;5055950;28;20088;-87
2023/11/04 07:42:40;;;;;;;2.67;0.50;;;8.40;99.90;;;;;;5055197;28;20068;-87
2023/11/04 07:45:11;;;;;;;1.10;0.43;;;8.40;99.90;;;;;;5056231;28;20079;-88
2023/11/04 07:47:37;;;;;;;0.77;0.38;;;8.50;99.90;;;;;;5057357;28;20021;-88
2023/11/04 07:50:03;;;;;;;0.85;0.32;;;8.50;99.90;;;;;;5056499;28;20119;-87
2023/11/04 07:52:29;;;;;;;1.55;0.50;;;8.60;99.90;;;;;;5039454;28;20025;-87
2023/11/04 07:54:54;;;;;;;1.50;0.50;;;8.60;99.90;;;;;;5055304;28;20108;-88
2023/11/04 07:57:20;;;;;;;0.40;0.40;;;8.60;99.90;;;;;;5055780;28;20438;-88
2023/11/04 07:59:45;;;;;;;2.47;0.50;;;8.60;99.90;;;;;;5055061;28;20509;-87
2023/11/04 08:02:11;;;;;;;3.67;0.40;;;8.60;99.90;;;;;;5056627;28;20025;-88
2023/11/04 08:04:38;;;;;;;0.57;0.50;;;8.60;99.90;;;;;;5056776;28;20032;-89
2023/11/04 08:07:04;;;;;;;0.32;0.30;;;8.60;99.90;;;;;;5055075;28;20114;-89
2023/11/04 08:09:29;;;;;;;1.90;0.40;;;8.60;99.90;;;;;;5055777;28;20048;-86
2023/11/04 08:11:55;;;;;;;0.73;0.50;;;8.60;99.90;;;;;;5055378;28;20025;-86
2023/11/04 08:14:20;;;;;;;0.50;0.38;;;8.70;99.90;;;;;;5056197;28;20029;-86
2023/11/04 08:16:46;;;;;;;0.82;0.40;;;8.70;99.90;;;;;;5056148;28;20036;-87
2023/11/04 08:19:12;;;;;;;0.80;0.50;;;8.90;99.90;;;;;;5055533;28;20090;-86
2023/11/04 08:21:37;;;;;;;1.58;0.50;;;9.00;99.90;;;;;;5055386;28;20035;-86
2023/11/04 08:24:03;;;;;;;1.20;0.47;;;9.10;99.90;;;;;;5054791;28;20027;-88
2023/11/04 08:26:28;;;;;;;0.88;0.40;;;9.20;99.90;;;;;;5054802;28;20457;-87
2023/11/04 08:28:55;;;;;;;1.08;0.63;;;9.30;99.90;;;;;;5055770;28;20036;-87
2023/11/04 08:31:20;;;;;;;1.40;0.40;;;9.40;99.90;;;;;;5038912;28;20112;-86
2023/11/04 08:33:48;;;;;;;3.25;1.00;;;9.50;99.90;;;;;;5054649;28;20048;-84
2023/11/04 08:36:15;;;;;;;0.75;0.60;;;9.50;99.90;;;;;;5055501;28;20028;-85
2023/11/04 08:38:41;;;;;;;0.30;0.30;;;9.60;99.90;;;;;;5055857;28;20476;-83
2023/11/04 08:41:06;;;;;;;1.25;0.40;;;9.70;99.90;;;;;;5055113;28;20183;-85
2023/11/04 08:43:32;;;;;;;1.52;0.57;;;9.70;99.90;;;;;;5037966;28;20080;-87
2023/11/04 08:45:58;;;;;;;0.77;0.57;;;9.80;99.90;;;;;;5054500;28;20051;-86
2023/11/04 08:48:24;;;;;;;1.50;0.68;;;9.90;99.90;;;;;;5054449;28;20025;-87
2023/11/04 08:50:49;;;;;;;1.70;0.65;;;10.00;99.90;;;;;;5054561;28;20051;-86
2023/11/04 08:53:15;;;;;;;2.28;0.43;;;10.00;99.90;;;;;;5054728;28;20075;-85
2023/11/04 08:55:41;;;;;;;1.15;0.47;;;10.10;99.90;;;;;;5054808;28;20028;-90
2023/11/04 08:58:06;;;;;;;1.27;0.50;;;10.00;99.90;;;;;;5037966;28;20450;-89
2023/11/04 09:00:32;;;;;;;0.55;0.30;;;10.10;99.90;;;;;;5054821;28;20392;-86
2023/11/04 09:03:01;;;;;;;1.80;0.40;;;10.20;99.90;;;;;;5050478;28;20036;-86
2023/11/04 09:05:27;;;;;;;1.92;0.40;;;10.30;99.90;;;;;;5054576;28;20016;-86
2023/11/04 09:07:53;;;;;;;0.60;0.30;;;10.40;99.90;;;;;;5036883;28;20067;-87
2023/11/04 09:10:19;;;;;;;1.55;0.40;;;10.50;99.90;;;;;;5055777;28;20037;-93
2023/11/04 09:12:45;;;;;;;0.52;0.30;;;10.60;99.90;;;;;;5062929;28;20055;-81
2023/11/04 09:15:11;;;;;;;1.95;0.43;;;10.70;99.90;;;;;;5054885;28;20043;-92
2023/11/04 09:17:38;;;;;;;1.23;0.47;;;10.70;99.90;;;;;;5057298;28;20024;-90
2023/11/04 09:20:05;;;;;;;0.70;0.50;;;10.70;99.90;;;;;;5067883;28;20032;-94
2023/11/04 09:22:31;;;;;;;0.90;0.50;;;10.80;99.90;;;;;;5049272;28;20020;-94
2023/11/04 09:24:57;;;;;;;1.60;0.30;;;10.80;99.90;;;;;;5053823;28;20108;-96
2023/11/04 09:27:24;;;;;;;0.85;0.43;;;11.00;99.90;;;;;;5040232;28;20063;-93
2023/11/04 09:29:49;;;;;;;1.40;0.20;;;11.10;99.90;;;;;;5036723;28;20016;-94
2023/11/04 09:32:17;;;;;;;0.45;0.20;;;11.20;99.90;;;;;;5037080;28;20416;-92
2023/11/04 09:34:43;;;;;;;0.60;0.30;;;11.30;99.90;;;;;;5054641;28;20023;-86
2023/11/04 09:37:09;;;;;;;0.60;0.30;;;11.30;99.90;;;;;;5036284;28;20115;-92
2023/11/04 09:39:34;;;;;;;0.82;0.40;;;11.40;99.90;;;;;;5036996;28;20374;-94
2023/11/04 09:42:00;;;;;;;2.80;0.30;;;11.50;99.90;;;;;;5048189;28;20120;-93
2023/11/04 09:44:26;;;;;;;0.20;0.20;;;11.50;99.90;;;;;;5053534;28;20025;-92
2023/11/04 09:46:51;;;;;;;0.40;0.30;;;11.50;99.90;;;;;;5052703;28;20021;-90
2023/11/04 09:49:18;;;;;;;1.65;0.25;;;11.50;99.90;;;;;;5052934;28;20492;-89
2023/11/04 09:51:44;;;;;;;1.58;0.20;;;11.50;99.90;;;;;;5036084;28;20028;-86
2023/11/04 09:54:13;;;;;;;0.40;0.40;;;11.60;99.90;;;;;;5058183;28;20025;-88
2023/11/04 09:56:39;;;;;;;0.82;0.32;;;11.60;99.90;;;;;;5053865;28;20025;-89
2023/11/04 09:59:07;;;;;;;0.75;0.35;;;11.60;99.90;;;;;;5039375;28;20058;-90
2023/11/04 10:01:33;;;;;;;1.15;0.30;;;11.60;99.90;;;;;;5036255;28;20155;-91
2023/11/04 10:03:59;;;;;;;1.75;0.60;;;11.60;99.90;;;;;;5032366;28;20025;-86
2023/11/04 10:06:25;;;;;;;1.30;0.30;;;11.50;99.90;;;;;;5045662;28;20024;-96
2023/11/04 10:08:51;;;;;;;2.00;0.40;;;11.40;99.90;;;;;;5056326;28;20017;-92
2023/11/04 10:11:17;;;;;;;0.88;0.30;;;11.50;99.90;;;;;;5037270;28;20025;-89
2023/11/04 10:13:43;;;;;;;1.65;0.50;;;11.50;99.90;;;;;;5037340;28;20032;-89
2023/11/04 10:16:09;;;;;;;1.65;0.22;;;11.50;99.90;;;;;;5052528;28;20061;-88
2023/11/04 10:18:34;;;;;;;0.38;0.20;;;11.50;99.90;;;;;;5033422;28;20025;-89
2023/11/04 10:21:00;;;;;;;0.93;0.20;;;11.60;99.90;;;;;;5065311;28;20017;-92
2023/11/04 10:23:26;;;;;;;0.43;0.20;;;11.70;99.90;;;;;;5035962;28;20013;-92
2023/11/04 10:25:52;;;;;;;0.60;0.30;;;11.80;99.90;;;;;;5034492;28;20024;-91
2023/11/04 10:28:18;;;;;;;0.70;0.20;;;11.90;99.90;;;;;;5053053;28;20453;-89
2023/11/04 10:30:44;;;;;;;0.70;0.30;;;12.00;99.90;;;;;;5035500;28;20013;-84
2023/11/04 10:33:15;;;;;;;1.88;0.25;;;12.00;99.90;;;;;;5035906;28;20446;-91
2023/11/04 10:35:42;;;;;;;0.52;0.20;;;12.10;99.90;;;;;;5043806;28;20017;-90
2023/11/04 10:38:10;;;;;;;0.20;0.20;;;12.10;99.90;;;;;;5030512;28;20037;-88
2023/11/04 10:40:36;;;;;;;0.55;0.35;;;12.20;99.90;;;;;;5051121;28;20021;-89
2023/11/04 10:43:07;;;;;;;1.20;0.20;;;12.20;99.90;;;;;;5036151;28;20118;-89
2023/11/04 10:45:41;;;;;;;1.92;0.40;;;12.20;99.90;;;;;;5049802;28;20043;-89
2023/11/04 10:48:45;;;;;;;1.27;0.47;;;12.20;99.90;;;;;;5047539;28;20094;-88
2023/11/04 10:51:28;;;;;;;1.05;0.47;;;12.10;99.90;;;;;;5050099;28;20029;-87
2023/11/04 10:54:01;;;;;;;1.33;0.70;;;12.00;99.90;;;;;;5042733;28;20443;-88
2023/11/04 10:56:38;;;;;;;0.40;0.30;;;12.00;99.90;;;;;;5050518;28;20094;-87
2023/11/04 10:59:12;;;;;;;4.53;0.57;;;12.00;99.90;;;;;;5049846;28;20013;-88
2023/11/04 11:01:41;;;;;;;2.35;0.60;;;12.00;99.90;;;;;;5047882;28;20077;-86
2023/11/04 11:04:08;;;;;;;1.27;0.40;;;12.00;99.90;;;;;;5037243;28;20049;-92
2023/11/04 11:06:34;;;;;;;0.45;0.40;;;12.10;99.90;;;;;;5053539;28;20025;-90
2023/11/04 11:09:04;;;;;;;1.38;0.40;;;12.10;99.90;;;;;;5034443;28;20897;-91
2023/11/04 11:11:44;;;;;;;1.33;0.40;;;12.30;99.90;;;;;;5036132;28;20025;-90
2023/11/04 11:14:11;;;;;;;0.80;0.50;;;12.40;99.90;;;;;;5053072;28;20048;-88
2023/11/04 11:16:37;;;;;;;0.88;0.50;;;12.50;99.90;;;;;;5053771;28;20053;-90
2023/11/04 11:19:10;;;;;;;0.80;0.40;;;12.50;99.90;;;;;;5053375;28;20056;-87
2023/11/04 11:21:49;;;;;;;0.40;0.20;;;12.50;99.90;;;;;;5051006;28;20021;-90
2023/11/04 11:24:22;;;;;;;0.45;0.30;;;12.50;99.90;;;;;;5053128;28;20021;-89
2023/11/04 11:26:56;;;;;;;0.45;0.38;;;12.50;99.90;;;;;;5052914;28;20021;-85
2023/11/04 11:29:24;;;;;;;0.30;0.10;;;12.60;99.90;;;;;;5052959;28;21172;-90
2023/11/04 11:32:01;;;;;;;0.60;0.20;;;12.70;99.90;;;;;;5068152;28;20021;-85
2023/11/04 11:34:27;;;;;;;0.28;0.20;;;12.80;99.90;;;;;;5051655;28;20025;-89
2023/11/04 11:36:53;;;;;;;0.03;0.03;;;12.80;99.90;;;;;;5068425;28;20021;-90
2023/11/04 11:39:19;;;;;;;0.52;0.10;;;12.80;99.90;;;;;;5036292;28;20033;-91
2023/11/04 11:41:46;;;;;;;0.30;0.10;;;12.80;99.90;;;;;;5051721;28;20049;-91
2023/11/04 11:44:15;;;;;;;0.30;0.20;;;12.80;99.90;;;;;;5057918;28;20477;-89
2023/11/04 11:46:42;;;;;;;0.20;0.20;;;12.80;99.90;;;;;;5052303;28;20066;-91
2023/11/04 11:49:09;;;;;;;0.30;0.13;;;12.80;99.90;;;;;;5055995;28;20025;-93
2023/11/04 11:51:35;;;;;;;0.57;0.03;;;12.70;99.90;;;;;;5053746;28;20021;-93
2023/11/04 11:54:02;;;;;;;0.65;0.20;;;12.70;99.90;;;;;;5054239;28;20025;-89
2023/11/04 11:56:32;;;;;;;0.40;0.10;;;12.50;99.90;;;;;;5044875;28;20032;-89
2023/11/04 11:59:06;;;;;;;0.30;0.10;;;12.40;99.90;;;;;;5053475;28;20052;-90
2023/11/04 12:01:33;;;;;;;0.40;0.10;;;12.20;99.90;;;;;;5058383;28;20017;-94
2023/11/04 12:04:01;;;;;;;0.15;0.08;;;12.10;99.90;;;;;;5066988;28;20028;-94
2023/11/04 12:06:30;;;;;;;1.20;0.17;;;11.90;99.90;;;;;;5125754;22;20087;-96
2023/11/04 12:08:57;;;;;;;0.15;0.00;;;11.90;99.90;;;;;;5139960;23;20056;-93
2023/11/04 12:11:26;;;;;;;0.30;0.20;;;12.00;99.90;;;;;;5093892;28;20029;-92
2023/11/04 12:13:53;;;;;;;1.27;0.20;;;11.90;99.90;;;;;;5089360;28;20062;-93
2023/11/04 12:16:18;;;;;;;1.50;0.75;;;11.90;99.90;;;;;;5081753;28;20111;-96
2023/11/04 12:18:48;;;;;;;0.95;0.30;;;11.80;99.90;;;;;;5072702;28;20071;-96
2023/11/04 12:21:15;;;;;;;0.90;0.30;;;11.80;99.90;;;;;;5081384;28;20043;-95
2023/11/04 12:23:41;;;;;;;1.25;0.57;;;11.80;99.90;;;;;;5085610;28;20044;-87
2023/11/04 12:26:07;;;;;;;0.38;0.30;;;11.70;99.90;;;;;;5063333;28;20028;-88
2023/11/04 12:28:40;;;;;;;1.88;0.60;;;11.70;99.90;;;;;;5080668;28;20492;-89
2023/11/04 12:31:06;;;;;;;1.65;0.60;;;11.70;99.90;;;;;;5056183;28;20685;-90
2023/11/04 12:33:36;;;;;;;1.58;0.50;;;11.70;99.90;;;;;;5058245;28;20381;-90
2023/11/04 12:36:06;;;;;;;1.95;0.40;;;11.70;99.90;;;;;;5054849;28;20031;-89
2023/11/04 12:38:32;;;;;;;0.65;0.20;;;11.70;99.90;;;;;;5075361;28;20495;-91
2023/11/04 12:40:59;;;;;;;0.73;0.20;;;11.70;99.90;;;;;;5057990;28;20028;-91
2023/11/04 12:43:25;;;;;;;0.65;0.40;;;11.70;99.90;;;;;;5058056;28;20025;-95
2023/11/04 12:45:56;;;;;;;0.93;0.30;;;11.60;99.90;;;;;;5057793;28;20032;-86
2023/11/04 12:48:22;;;;;;;1.02;0.40;;;11.60;99.90;;;;;;5075899;28;20028;-93
2023/11/04 12:50:48;;;;;;;1.63;0.30;;;11.60;99.90;;;;;;5075902;28;20107;-94